sensor_id;sensor_type;location;lat;lon;timestamp;P1;durP1;ratioP1;P2;durP2;ratioP2
2860;SDS011;1438;50.922;6.704;2023-11-19T00:00:27;1.40;;;1.00;;
2860;SDS011;1438;50.922;6.704;2023-11-19T00:02:53;1.35;;;0.80;;
2860;SDS011;1438;50.922;6.704;2023-11-19T00:05:19;1.20;;;0.98;;
2860;SDS011;1438;50.922;6.704;2023-11-19T00:07:45;1.02;;;0.65;;
2860;SDS011;1438;50.922;6.704;2023-11-19T00:10:11;0.90;;;0.70;;
2860;SDS011;1438;50.922;6.704;2023-11-19T00:12:41;1.00;;;0.70;;
2860;SDS011;1438;50.922;6.704;2023-11-19T00:15:09;1.00;;;0.70;;
2860;SDS011;1438;50.922;6.704;2023-11-19T00:17:37;1.05;;;0.70;;
2860;SDS011;1438;50.922;6.704;2023-11-19T00:20:05;1.40;;;0.90;;
2860;SDS011;1438;50.922;6.704;2023-11-19T00:22:32;0.98;;;0.70;;
2860;SDS011;1438;50.922;6.704;2023-11-19T00:24:58;1.10;;;0.80;;
2860;SDS011;1438;50.922;6.704;2023-11-19T00:27:24;0.80;;;0.52;;
2860;SDS011;1438;50.922;6.704;2023-11-19T00:29:51;4.53;;;0.68;;
2860;SDS011;1438;50.922;6.704;2023-11-19T00:32:17;0.88;;;0.60;;
2860;SDS011;1438;50.922;6.704;2023-11-19T00:34:44;0.70;;;0.50;;
2860;SDS011;1438;50.922;6.704;2023-11-19T00:37:10;0.68;;;0.50;;
2860;SDS011;1438;50.922;6.704;2023-11-19T00:39:36;0.70;;;0.52;;
2860;SDS011;1438;50.922;6.704;2023-11-19T00:42:02;0.73;;;0.60;;
2860;SDS011;1438;50.922;6.704;2023-11-19T00:44:28;2.45;;;0.55;;
2860;SDS011;1438;50.922;6.704;2023-11-19T00:46:54;0.70;;;0.60;;
2860;SDS011;1438;50.922;6.704;2023-11-19T00:49:20;0.70;;;0.53;;
2860;SDS011;1438;50.922;6.704;2023-11-19T00:51:46;0.73;;;0.50;;
2860;SDS011;1438;50.922;6.704;2023-11-19T00:54:12;1.10;;;0.50;;
2860;SDS011;1438;50.922;6.704;2023-11-19T00:56:38;0.80;;;0.60;;
2860;SDS011;1438;50.922;6.704;2023-11-19T00:59:04;2.28;;;0.70;;
2860;SDS011;1438;50.922;6.704;2023-11-19T01:01:30;0.90;;;0.52;;
2860;SDS011;1438;50.922;6.704;2023-11-19T01:03:56;1.73;;;0.60;;
2860;SDS011;1438;50.922;6.704;2023-11-19T01:06:26;0.70;;;0.60;;
2860;SDS011;1438;50.922;6.704;2023-11-19T01:08:52;1.25;;;0.90;;
2860;SDS011;1438;50.922;6.704;2023-11-19T01:11:21;0.83;;;0.60;;
2860;SDS011;1438;50.922;6.704;2023-11-19T01:13:47;1.92;;;0.98;;
2860;SDS011;1438;50.922;6.704;2023-11-19T01:16:13;0.85;;;0.60;;
2860;SDS011;1438;50.922;6.704;2023-11-19T01:18:39;3.97;;;0.70;;
2860;SDS011;1438;50.922;6.704;2023-11-19T01:21:05;1.57;;;0.63;;
2860;SDS011;1438;50.922;6.704;2023-11-19T01:23:31;0.90;;;0.70;;
2860;SDS011;1438;50.922;6.704;2023-11-19T01:25:57;1.00;;;0.60;;
2860;SDS011;1438;50.922;6.704;2023-11-19T01:28:23;1.42;;;0.70;;
2860;SDS011;1438;50.922;6.704;2023-11-19T01:30:53;0.83;;;0.70;;
2860;SDS011;1438;50.922;6.704;2023-11-19T01:33:19;2.80;;;0.75;;
2860;SDS011;1438;50.922;6.704;2023-11-19T01:35:46;1.08;;;0.82;;
2860;SDS011;1438;50.922;6.704;2023-11-19T01:38:12;3.37;;;1.00;;
2860;SDS011;1438;50.922;6.704;2023-11-19T01:40:38;3.40;;;1.30;;
2860;SDS011;1438;50.922;6.704;2023-11-19T01:43:04;2.73;;;1.63;;
2860;SDS011;1438;50.922;6.704;2023-11-19T01:45:30;2.00;;;1.43;;
2860;SDS011;1438;50.922;6.704;2023-11-19T01:47:57;2.75;;;1.45;;
2860;SDS011;1438;50.922;6.704;2023-11-19T01:50:24;1.20;;;1.10;;
2860;SDS011;1438;50.922;6.704;2023-11-19T01:52:53;2.05;;;1.33;;
2860;SDS011;1438;50.922;6.704;2023-11-19T01:55:20;3.67;;;1.33;;
2860;SDS011;1438;50.922;6.704;2023-11-19T01:57:47;5.40;;;1.75;;
2860;SDS011;1438;50.922;6.704;2023-11-19T02:00:14;3.60;;;2.08;;
2860;SDS011;1438;50.922;6.704;2023-11-19T02:02:41;4.00;;;1.58;;
2860;SDS011;1438;50.922;6.704;2023-11-19T02:05:08;6.38;;;2.05;;
2860;SDS011;1438;50.922;6.704;2023-11-19T02:07:34;3.22;;;1.55;;
2860;SDS011;1438;50.922;6.704;2023-11-19T02:10:00;4.75;;;1.92;;
2860;SDS011;1438;50.922;6.704;2023-11-19T02:12:27;7.43;;;1.88;;
2860;SDS011;1438;50.922;6.704;2023-11-19T02:14:53;2.72;;;1.55;;
2860;SDS011;1438;50.922;6.704;2023-11-19T02:17:29;5.93;;;1.98;;
2860;SDS011;1438;50.922;6.704;2023-11-19T02:19:59;7.40;;;1.55;;
2860;SDS011;1438;50.922;6.704;2023-11-19T02:22:25;2.43;;;1.40;;
2860;SDS011;1438;50.922;6.704;2023-11-19T02:24:51;7.05;;;2.10;;
2860;SDS011;1438;50.922;6.704;2023-11-19T02:27:43;6.07;;;1.65;;
2860;SDS011;1438;50.922;6.704;2023-11-19T02:30:11;7.82;;;2.33;;
2860;SDS011;1438;50.922;6.704;2023-11-19T02:32:40;7.07;;;3.00;;
2860;SDS011;1438;50.922;6.704;2023-11-19T02:35:06;8.05;;;2.55;;
2860;SDS011;1438;50.922;6.704;2023-11-19T02:37:36;5.32;;;1.95;;
2860;SDS011;1438;50.922;6.704;2023-11-19T02:40:03;8.57;;;2.47;;
2860;SDS011;1438;50.922;6.704;2023-11-19T02:42:30;7.38;;;2.17;;
2860;SDS011;1438;50.922;6.704;2023-11-19T02:44:56;16.55;;;3.10;;
2860;SDS011;1438;50.922;6.704;2023-11-19T02:47:22;5.27;;;2.13;;
2860;SDS011;1438;50.922;6.704;2023-11-19T02:49:49;7.30;;;2.53;;
2860;SDS011;1438;50.922;6.704;2023-11-19T02:52:15;9.65;;;2.40;;
2860;SDS011;1438;50.922;6.704;2023-11-19T02:54:42;4.10;;;1.83;;
2860;SDS011;1438;50.922;6.704;2023-11-19T02:57:08;7.55;;;2.33;;
2860;SDS011;1438;50.922;6.704;2023-11-19T02:59:37;9.02;;;2.17;;
2860;SDS011;1438;50.922;6.704;2023-11-19T03:02:04;12.95;;;3.95;;
2860;SDS011;1438;50.922;6.704;2023-11-19T03:04:41;6.18;;;2.95;;
2860;SDS011;1438;50.922;6.704;2023-11-19T03:07:10;9.63;;;2.80;;
2860;SDS011;1438;50.922;6.704;2023-11-19T03:09:37;10.15;;;2.83;;
2860;SDS011;1438;50.922;6.704;2023-11-19T03:12:05;11.35;;;2.60;;
2860;SDS011;1438;50.922;6.704;2023-11-19T03:14:33;6.43;;;2.28;;
2860;SDS011;1438;50.922;6.704;2023-11-19T03:17:01;5.75;;;2.40;;
2860;SDS011;1438;50.922;6.704;2023-11-19T03:19:28;5.22;;;2.50;;
2860;SDS011;1438;50.922;6.704;2023-11-19T03:21:54;5.53;;;2.17;;
2860;SDS011;1438;50.922;6.704;2023-11-19T03:24:20;8.75;;;3.00;;
2860;SDS011;1438;50.922;6.704;2023-11-19T03:26:49;10.40;;;3.03;;
2860;SDS011;1438;50.922;6.704;2023-11-19T03:29:15;9.48;;;2.50;;
2860;SDS011;1438;50.922;6.704;2023-11-19T03:31:42;10.13;;;2.27;;
2860;SDS011;1438;50.922;6.704;2023-11-19T03:34:08;13.40;;;3.75;;
2860;SDS011;1438;50.922;6.704;2023-11-19T03:36:34;9.40;;;2.60;;
2860;SDS011;1438;50.922;6.704;2023-11-19T03:39:00;9.02;;;2.47;;
2860;SDS011;1438;50.922;6.704;2023-11-19T03:41:27;9.90;;;2.40;;
2860;SDS011;1438;50.922;6.704;2023-11-19T03:43:53;6.90;;;2.50;;
2860;SDS011;1438;50.922;6.704;2023-11-19T03:46:19;9.37;;;2.90;;
2860;SDS011;1438;50.922;6.704;2023-11-19T03:48:46;6.40;;;2.25;;
2860;SDS011;1438;50.922;6.704;2023-11-19T03:51:12;8.30;;;2.30;;
2860;SDS011;1438;50.922;6.704;2023-11-19T03:53:41;9.43;;;2.50;;
2860;SDS011;1438;50.922;6.704;2023-11-19T03:56:07;10.65;;;2.70;;
2860;SDS011;1438;50.922;6.704;2023-11-19T03:58:34;7.32;;;2.25;;
2860;SDS011;1438;50.922;6.704;2023-11-19T04:01:01;10.18;;;2.92;;
2860;SDS011;1438;50.922;6.704;2023-11-19T04:03:27;8.82;;;4.38;;
2860;SDS011;1438;50.922;6.704;2023-11-19T04:05:53;8.65;;;1.98;;
2860;SDS011;1438;50.922;6.704;2023-11-19T04:08:19;10.07;;;1.83;;
2860;SDS011;1438;50.922;6.704;2023-11-19T04:10:45;11.50;;;2.97;;
2860;SDS011;1438;50.922;6.704;2023-11-19T04:13:11;8.37;;;1.87;;
2860;SDS011;1438;50.922;6.704;2023-11-19T04:15:37;14.80;;;2.90;;
2860;SDS011;1438;50.922;6.704;2023-11-19T04:18:03;5.65;;;2.25;;
2860;SDS011;1438;50.922;6.704;2023-11-19T04:20:29;8.20;;;2.33;;
2860;SDS011;1438;50.922;6.704;2023-11-19T04:22:56;10.30;;;3.30;;
2860;SDS011;1438;50.922;6.704;2023-11-19T04:25:22;17.35;;;2.75;;
2860;SDS011;1438;50.922;6.704;2023-11-19T04:27:51;7.72;;;2.50;;
2860;SDS011;1438;50.922;6.704;2023-11-19T04:30:17;11.00;;;3.20;;
2860;SDS011;1438;50.922;6.704;2023-11-19T04:32:43;14.60;;;2.70;;
2860;SDS011;1438;50.922;6.704;2023-11-19T04:35:09;7.03;;;2.53;;
2860;SDS011;1438;50.922;6.704;2023-11-19T04:37:35;12.40;;;2.50;;
2860;SDS011;1438;50.922;6.704;2023-11-19T04:40:02;9.02;;;2.45;;
2860;SDS011;1438;50.922;6.704;2023-11-19T04:42:28;12.35;;;2.85;;
2860;SDS011;1438;50.922;6.704;2023-11-19T04:44:54;13.85;;;2.85;;
2860;SDS011;1438;50.922;6.704;2023-11-19T04:47:20;10.55;;;2.55;;
2860;SDS011;1438;50.922;6.704;2023-11-19T04:49:46;13.07;;;2.60;;
2860;SDS011;1438;50.922;6.704;2023-11-19T04:52:13;8.95;;;2.10;;
2860;SDS011;1438;50.922;6.704;2023-11-19T04:54:42;8.32;;;2.60;;
2860;SDS011;1438;50.922;6.704;2023-11-19T04:57:08;9.82;;;3.25;;
2860;SDS011;1438;50.922;6.704;2023-11-19T04:59:36;12.52;;;2.95;;
2860;SDS011;1438;50.922;6.704;2023-11-19T05:02:02;15.15;;;2.65;;
2860;SDS011;1438;50.922;6.704;2023-11-19T05:04:29;10.75;;;3.08;;
2860;SDS011;1438;50.922;6.704;2023-11-19T05:06:55;11.60;;;3.35;;
2860;SDS011;1438;50.922;6.704;2023-11-19T05:09:21;6.47;;;2.17;;
2860;SDS011;1438;50.922;6.704;2023-11-19T05:11:47;7.95;;;2.50;;
2860;SDS011;1438;50.922;6.704;2023-11-19T05:14:13;11.02;;;2.10;;
2860;SDS011;1438;50.922;6.704;2023-11-19T05:16:40;9.10;;;3.17;;
2860;SDS011;1438;50.922;6.704;2023-11-19T05:19:08;9.27;;;2.92;;
2860;SDS011;1438;50.922;6.704;2023-11-19T05:21:34;9.70;;;2.80;;
2860;SDS011;1438;50.922;6.704;2023-11-19T05:24:01;16.48;;;3.28;;
2860;SDS011;1438;50.922;6.704;2023-11-19T05:26:29;12.23;;;2.88;;
2860;SDS011;1438;50.922;6.704;2023-11-19T05:28:55;17.02;;;3.00;;
2860;SDS011;1438;50.922;6.704;2023-11-19T05:31:21;11.30;;;2.40;;
2860;SDS011;1438;50.922;6.704;2023-11-19T05:33:47;17.63;;;2.53;;
2860;SDS011;1438;50.922;6.704;2023-11-19T05:41:46;17.83;;;3.40;;
2860;SDS011;1438;50.922;6.704;2023-11-19T05:44:12;8.27;;;2.07;;
2860;SDS011;1438;50.922;6.704;2023-11-19T05:46:38;14.65;;;3.13;;
2860;SDS011;1438;50.922;6.704;2023-11-19T05:49:07;13.80;;;2.97;;
2860;SDS011;1438;50.922;6.704;2023-11-19T05:51:36;15.83;;;3.70;;
2860;SDS011;1438;50.922;6.704;2023-11-19T05:54:02;10.50;;;2.53;;
2860;SDS011;1438;50.922;6.704;2023-11-19T05:56:28;11.55;;;3.10;;
2860;SDS011;1438;50.922;6.704;2023-11-19T05:58:57;15.70;;;3.45;;
2860;SDS011;1438;50.922;6.704;2023-11-19T06:01:25;10.50;;;2.85;;
2860;SDS011;1438;50.922;6.704;2023-11-19T06:03:51;11.93;;;2.95;;
2860;SDS011;1438;50.922;6.704;2023-11-19T06:06:17;13.37;;;2.90;;
2860;SDS011;1438;50.922;6.704;2023-11-19T06:08:43;16.52;;;3.22;;
2860;SDS011;1438;50.922;6.704;2023-11-19T06:11:10;11.05;;;2.60;;
2860;SDS011;1438;50.922;6.704;2023-11-19T06:13:43;5.63;;;2.05;;
2860;SDS011;1438;50.922;6.704;2023-11-19T06:16:09;15.65;;;2.70;;
2860;SDS011;1438;50.922;6.704;2023-11-19T06:18:36;18.30;;;4.27;;
2860;SDS011;1438;50.922;6.704;2023-11-19T06:21:02;19.25;;;2.83;;
2860;SDS011;1438;50.922;6.704;2023-11-19T06:23:28;12.63;;;2.92;;
2860;SDS011;1438;50.922;6.704;2023-11-19T06:25:54;13.07;;;4.00;;
2860;SDS011;1438;50.922;6.704;2023-11-19T06:28:20;9.40;;;2.40;;
2860;SDS011;1438;50.922;6.704;2023-11-19T06:30:46;12.77;;;2.78;;
2860;SDS011;1438;50.922;6.704;2023-11-19T06:33:12;9.73;;;2.63;;
2860;SDS011;1438;50.922;6.704;2023-11-19T06:35:39;20.05;;;3.95;;
2860;SDS011;1438;50.922;6.704;2023-11-19T06:38:05;16.05;;;3.10;;
2860;SDS011;1438;50.922;6.704;2023-11-19T06:40:31;16.70;;;4.03;;
2860;SDS011;1438;50.922;6.704;2023-11-19T06:42:58;18.33;;;4.95;;
2860;SDS011;1438;50.922;6.704;2023-11-19T06:45:24;15.30;;;2.88;;
2860;SDS011;1438;50.922;6.704;2023-11-19T06:47:50;9.33;;;3.20;;
2860;SDS011;1438;50.922;6.704;2023-11-19T06:50:16;17.27;;;3.47;;
2860;SDS011;1438;50.922;6.704;2023-11-19T06:52:44;11.43;;;2.85;;
2860;SDS011;1438;50.922;6.704;2023-11-19T06:55:10;8.82;;;2.65;;
2860;SDS011;1438;50.922;6.704;2023-11-19T06:57:36;12.63;;;3.00;;
2860;SDS011;1438;50.922;6.704;2023-11-19T07:00:03;12.00;;;3.85;;
2860;SDS011;1438;50.922;6.704;2023-11-19T07:02:30;13.40;;;3.15;;
2860;SDS011;1438;50.922;6.704;2023-11-19T07:04:56;18.95;;;3.33;;
2860;SDS011;1438;50.922;6.704;2023-11-19T07:07:22;15.20;;;4.05;;
2860;SDS011;1438;50.922;6.704;2023-11-19T07:09:48;16.10;;;3.88;;
2860;SDS011;1438;50.922;6.704;2023-11-19T07:12:15;11.98;;;3.47;;
2860;SDS011;1438;50.922;6.704;2023-11-19T07:14:41;13.00;;;3.47;;
2860;SDS011;1438;50.922;6.704;2023-11-19T07:17:07;11.77;;;2.85;;
2860;SDS011;1438;50.922;6.704;2023-11-19T07:19:36;15.65;;;3.13;;
2860;SDS011;1438;50.922;6.704;2023-11-19T07:22:03;13.80;;;2.67;;
2860;SDS011;1438;50.922;6.704;2023-11-19T07:24:29;25.33;;;4.50;;
2860;SDS011;1438;50.922;6.704;2023-11-19T07:26:56;20.00;;;3.45;;
2860;SDS011;1438;50.922;6.704;2023-11-19T07:29:22;12.80;;;3.60;;
2860;SDS011;1438;50.922;6.704;2023-11-19T07:31:48;22.95;;;3.65;;
2860;SDS011;1438;50.922;6.704;2023-11-19T07:34:14;21.05;;;4.65;;
2860;SDS011;1438;50.922;6.704;2023-11-19T07:36:40;14.18;;;2.58;;
2860;SDS011;1438;50.922;6.704;2023-11-19T07:39:07;12.48;;;3.20;;
2860;SDS011;1438;50.922;6.704;2023-11-19T07:41:33;12.82;;;2.83;;
2860;SDS011;1438;50.922;6.704;2023-11-19T07:43:59;16.13;;;3.97;;
2860;SDS011;1438;50.922;6.704;2023-11-19T07:46:26;15.20;;;3.85;;
2860;SDS011;1438;50.922;6.704;2023-11-19T07:48:52;19.08;;;3.75;;
2860;SDS011;1438;50.922;6.704;2023-11-19T07:51:18;21.83;;;4.72;;
2860;SDS011;1438;50.922;6.704;2023-11-19T07:53:44;24.63;;;3.80;;
2860;SDS011;1438;50.922;6.704;2023-11-19T07:56:10;16.50;;;3.60;;
2860;SDS011;1438;50.922;6.704;2023-11-19T07:58:36;27.10;;;3.97;;
2860;SDS011;1438;50.922;6.704;2023-11-19T08:01:02;18.90;;;3.40;;
2860;SDS011;1438;50.922;6.704;2023-11-19T08:03:28;20.50;;;4.57;;
2860;SDS011;1438;50.922;6.704;2023-11-19T08:05:59;17.30;;;4.90;;
2860;SDS011;1438;50.922;6.704;2023-11-19T08:08:25;17.25;;;4.78;;
2860;SDS011;1438;50.922;6.704;2023-11-19T08:10:51;15.15;;;3.92;;
2860;SDS011;1438;50.922;6.704;2023-11-19T08:13:18;13.13;;;2.80;;
2860;SDS011;1438;50.922;6.704;2023-11-19T08:15:45;13.57;;;4.00;;
2860;SDS011;1438;50.922;6.704;2023-11-19T08:18:11;17.30;;;4.15;;
2860;SDS011;1438;50.922;6.704;2023-11-19T08:20:38;18.88;;;3.60;;
2860;SDS011;1438;50.922;6.704;2023-11-19T08:23:04;18.70;;;4.70;;
2860;SDS011;1438;50.922;6.704;2023-11-19T08:25:30;18.38;;;3.83;;
2860;SDS011;1438;50.922;6.704;2023-11-19T08:27:58;15.20;;;3.45;;
2860;SDS011;1438;50.922;6.704;2023-11-19T08:30:24;20.90;;;4.33;;
2860;SDS011;1438;50.922;6.704;2023-11-19T08:32:50;18.53;;;3.23;;
2860;SDS011;1438;50.922;6.704;2023-11-19T08:35:16;15.67;;;3.10;;
2860;SDS011;1438;50.922;6.704;2023-11-19T08:37:42;13.68;;;3.00;;
2860;SDS011;1438;50.922;6.704;2023-11-19T08:40:10;14.70;;;2.90;;
2860;SDS011;1438;50.922;6.704;2023-11-19T08:42:37;14.18;;;3.75;;
2860;SDS011;1438;50.922;6.704;2023-11-19T08:45:04;19.17;;;4.13;;
2860;SDS011;1438;50.922;6.704;2023-11-19T08:47:30;22.25;;;4.13;;
2860;SDS011;1438;50.922;6.704;2023-11-19T08:49:56;9.60;;;4.00;;
2860;SDS011;1438;50.922;6.704;2023-11-19T08:52:22;22.07;;;4.80;;
2860;SDS011;1438;50.922;6.704;2023-11-19T08:54:48;25.23;;;5.50;;
2860;SDS011;1438;50.922;6.704;2023-11-19T08:57:14;20.70;;;3.23;;
2860;SDS011;1438;50.922;6.704;2023-11-19T08:59:40;14.40;;;4.30;;
2860;SDS011;1438;50.922;6.704;2023-11-19T09:02:06;14.50;;;3.78;;
2860;SDS011;1438;50.922;6.704;2023-11-19T09:04:33;12.25;;;3.65;;
2860;SDS011;1438;50.922;6.704;2023-11-19T09:06:59;13.98;;;4.00;;
2860;SDS011;1438;50.922;6.704;2023-11-19T09:09:25;19.77;;;3.90;;
2860;SDS011;1438;50.922;6.704;2023-11-19T09:11:51;19.40;;;4.53;;
2860;SDS011;1438;50.922;6.704;2023-11-19T09:14:17;16.02;;;3.58;;
2860;SDS011;1438;50.922;6.704;2023-11-19T09:16:52;17.50;;;4.20;;
2860;SDS011;1438;50.922;6.704;2023-11-19T09:19:18;10.35;;;3.10;;
2860;SDS011;1438;50.922;6.704;2023-11-19T09:21:44;15.65;;;3.92;;
2860;SDS011;1438;50.922;6.704;2023-11-19T09:24:10;25.43;;;4.13;;
2860;SDS011;1438;50.922;6.704;2023-11-19T09:26:36;18.30;;;5.20;;
2860;SDS011;1438;50.922;6.704;2023-11-19T09:29:04;21.17;;;3.85;;
2860;SDS011;1438;50.922;6.704;2023-11-19T09:31:30;17.10;;;4.17;;
2860;SDS011;1438;50.922;6.704;2023-11-19T09:33:57;18.42;;;5.22;;
2860;SDS011;1438;50.922;6.704;2023-11-19T09:36:23;14.33;;;3.67;;
2860;SDS011;1438;50.922;6.704;2023-11-19T09:38:49;23.63;;;4.50;;
2860;SDS011;1438;50.922;6.704;2023-11-19T09:41:15;15.30;;;3.10;;
2860;SDS011;1438;50.922;6.704;2023-11-19T09:43:41;20.67;;;4.97;;
2860;SDS011;1438;50.922;6.704;2023-11-19T09:46:12;11.40;;;3.87;;
2860;SDS011;1438;50.922;6.704;2023-11-19T09:48:38;13.43;;;3.73;;
2860;SDS011;1438;50.922;6.704;2023-11-19T09:51:10;11.50;;;3.50;;
2860;SDS011;1438;50.922;6.704;2023-11-19T09:53:37;15.37;;;3.83;;
2860;SDS011;1438;50.922;6.704;2023-11-19T09:56:04;19.90;;;4.60;;
2860;SDS011;1438;50.922;6.704;2023-11-19T09:58:30;17.97;;;3.90;;
2860;SDS011;1438;50.922;6.704;2023-11-19T10:00:56;18.80;;;4.17;;
2860;SDS011;1438;50.922;6.704;2023-11-19T10:03:27;14.13;;;3.10;;
2860;SDS011;1438;50.922;6.704;2023-11-19T10:05:54;9.87;;;3.07;;
2860;SDS011;1438;50.922;6.704;2023-11-19T10:08:21;23.20;;;4.60;;
2860;SDS011;1438;50.922;6.704;2023-11-19T10:10:47;16.03;;;4.00;;
2860;SDS011;1438;50.922;6.704;2023-11-19T10:13:14;21.57;;;3.13;;
2860;SDS011;1438;50.922;6.704;2023-11-19T10:15:40;20.87;;;4.10;;
2860;SDS011;1438;50.922;6.704;2023-11-19T10:18:06;16.73;;;3.63;;
2860;SDS011;1438;50.922;6.704;2023-11-19T10:20:35;18.90;;;5.93;;
2860;SDS011;1438;50.922;6.704;2023-11-19T10:23:02;17.63;;;3.67;;
2860;SDS011;1438;50.922;6.704;2023-11-19T10:25:28;12.60;;;4.00;;
2860;SDS011;1438;50.922;6.704;2023-11-19T10:27:55;18.93;;;3.50;;
2860;SDS011;1438;50.922;6.704;2023-11-19T10:30:22;11.40;;;3.53;;
2860;SDS011;1438;50.922;6.704;2023-11-19T10:35:54;15.13;;;3.60;;
2860;SDS011;1438;50.922;6.704;2023-11-19T10:38:24;20.50;;;4.90;;
2860;SDS011;1438;50.922;6.704;2023-11-19T10:40:50;17.83;;;4.30;;
2860;SDS011;1438;50.922;6.704;2023-11-19T10:43:17;19.03;;;3.60;;
2860;SDS011;1438;50.922;6.704;2023-11-19T10:45:43;18.03;;;5.30;;
2860;SDS011;1438;50.922;6.704;2023-11-19T10:48:09;11.97;;;3.50;;
2860;SDS011;1438;50.922;6.704;2023-11-19T10:50:36;18.37;;;3.80;;
2860;SDS011;1438;50.922;6.704;2023-11-19T10:53:02;12.95;;;3.40;;
2860;SDS011;1438;50.922;6.704;2023-11-19T10:55:29;11.03;;;3.07;;
2860;SDS011;1438;50.922;6.704;2023-11-19T10:57:58;17.53;;;3.47;;
2860;SDS011;1438;50.922;6.704;2023-11-19T11:00:24;11.83;;;3.47;;
2860;SDS011;1438;50.922;6.704;2023-11-19T11:02:52;14.13;;;3.05;;
2860;SDS011;1438;50.922;6.704;2023-11-19T11:05:20;12.43;;;3.43;;
2860;SDS011;1438;50.922;6.704;2023-11-19T11:07:47;14.90;;;4.10;;
2860;SDS011;1438;50.922;6.704;2023-11-19T11:10:16;16.10;;;4.30;;
2860;SDS011;1438;50.922;6.704;2023-11-19T11:12:42;14.30;;;4.23;;
2860;SDS011;1438;50.922;6.704;2023-11-19T11:15:10;15.57;;;3.67;;
2860;SDS011;1438;50.922;6.704;2023-11-19T11:17:37;12.90;;;3.03;;
2860;SDS011;1438;50.922;6.704;2023-11-19T11:20:05;16.60;;;3.63;;
2860;SDS011;1438;50.922;6.704;2023-11-19T11:22:33;8.80;;;2.53;;
2860;SDS011;1438;50.922;6.704;2023-11-19T11:25:08;11.00;;;2.80;;
2860;SDS011;1438;50.922;6.704;2023-11-19T11:30:26;10.97;;;3.27;;
2860;SDS011;1438;50.922;6.704;2023-11-19T11:33:15;13.00;;;2.40;;
2860;SDS011;1438;50.922;6.704;2023-11-19T11:35:50;13.77;;;3.73;;
2860;SDS011;1438;50.922;6.704;2023-11-19T11:38:21;13.63;;;3.07;;
2860;SDS011;1438;50.922;6.704;2023-11-19T11:43:44;14.90;;;3.00;;
2860;SDS011;1438;50.922;6.704;2023-11-19T11:46:53;11.07;;;3.15;;
2860;SDS011;1438;50.922;6.704;2023-11-19T11:49:01;10.48;;;2.70;;
2860;SDS011;1438;50.922;6.704;2023-11-19T11:54:31;8.73;;;2.77;;
2860;SDS011;1438;50.922;6.704;2023-11-19T11:57:03;8.97;;;2.20;;
2860;SDS011;1438;50.922;6.704;2023-11-19T12:02:07;6.70;;;1.90;;
2860;SDS011;1438;50.922;6.704;2023-11-19T12:04:34;11.50;;;2.67;;
2860;SDS011;1438;50.922;6.704;2023-11-19T12:07:04;14.53;;;3.07;;
2860;SDS011;1438;50.922;6.704;2023-11-19T12:09:31;14.30;;;2.70;;
2860;SDS011;1438;50.922;6.704;2023-11-19T12:12:07;13.50;;;3.07;;
2860;SDS011;1438;50.922;6.704;2023-11-19T12:20:02;12.90;;;3.20;;
2860;SDS011;1438;50.922;6.704;2023-11-19T12:22:29;14.97;;;5.90;;
2860;SDS011;1438;50.922;6.704;2023-11-19T12:24:54;11.37;;;3.67;;
2860;SDS011;1438;50.922;6.704;2023-11-19T12:27:21;12.60;;;3.20;;
2860;SDS011;1438;50.922;6.704;2023-11-19T12:29:47;12.83;;;2.60;;
2860;SDS011;1438;50.922;6.704;2023-11-19T12:32:13;14.70;;;3.33;;
2860;SDS011;1438;50.922;6.704;2023-11-19T12:34:39;8.10;;;2.77;;
2860;SDS011;1438;50.922;6.704;2023-11-19T12:37:05;7.17;;;2.23;;
2860;SDS011;1438;50.922;6.704;2023-11-19T12:39:33;11.60;;;3.07;;
2860;SDS011;1438;50.922;6.704;2023-11-19T12:41:59;7.17;;;2.40;;
2860;SDS011;1438;50.922;6.704;2023-11-19T12:44:25;14.23;;;5.37;;
2860;SDS011;1438;50.922;6.704;2023-11-19T12:47:04;11.50;;;2.93;;
2860;SDS011;1438;50.922;6.704;2023-11-19T12:49:31;8.83;;;2.13;;
2860;SDS011;1438;50.922;6.704;2023-11-19T12:51:57;9.32;;;3.45;;
2860;SDS011;1438;50.922;6.704;2023-11-19T12:54:33;9.77;;;2.53;;
2860;SDS011;1438;50.922;6.704;2023-11-19T12:56:59;12.50;;;2.57;;
2860;SDS011;1438;50.922;6.704;2023-11-19T12:59:25;10.57;;;2.60;;
2860;SDS011;1438;50.922;6.704;2023-11-19T13:01:58;10.90;;;2.10;;
2860;SDS011;1438;50.922;6.704;2023-11-19T13:04:28;9.43;;;2.17;;
2860;SDS011;1438;50.922;6.704;2023-11-19T13:06:55;18.63;;;3.70;;
2860;SDS011;1438;50.922;6.704;2023-11-19T13:09:22;8.30;;;2.70;;
2860;SDS011;1438;50.922;6.704;2023-11-19T13:11:49;14.77;;;2.63;;
2860;SDS011;1438;50.922;6.704;2023-11-19T13:14:15;19.17;;;3.40;;
2860;SDS011;1438;50.922;6.704;2023-11-19T13:16:41;13.10;;;4.37;;
2860;SDS011;1438;50.922;6.704;2023-11-19T13:19:08;10.00;;;3.30;;
2860;SDS011;1438;50.922;6.704;2023-11-19T13:21:34;11.43;;;3.30;;
2860;SDS011;1438;50.922;6.704;2023-11-19T13:24:00;13.57;;;3.30;;
2860;SDS011;1438;50.922;6.704;2023-11-19T13:26:26;8.13;;;2.90;;
2860;SDS011;1438;50.922;6.704;2023-11-19T13:28:52;13.20;;;3.40;;
2860;SDS011;1438;50.922;6.704;2023-11-19T13:31:18;14.77;;;3.25;;
2860;SDS011;1438;50.922;6.704;2023-11-19T13:33:44;10.77;;;3.10;;
2860;SDS011;1438;50.922;6.704;2023-11-19T13:36:10;20.57;;;4.17;;
2860;SDS011;1438;50.922;6.704;2023-11-19T13:38:37;7.22;;;2.40;;
2860;SDS011;1438;50.922;6.704;2023-11-19T13:41:03;12.32;;;2.90;;
2860;SDS011;1438;50.922;6.704;2023-11-19T13:43:29;14.23;;;2.90;;
2860;SDS011;1438;50.922;6.704;2023-11-19T13:45:56;15.83;;;3.03;;
2860;SDS011;1438;50.922;6.704;2023-11-19T13:48:23;16.10;;;4.03;;
2860;SDS011;1438;50.922;6.704;2023-11-19T13:50:49;13.70;;;3.27;;
2860;SDS011;1438;50.922;6.704;2023-11-19T13:53:15;18.97;;;3.50;;
2860;SDS011;1438;50.922;6.704;2023-11-19T13:55:42;14.23;;;3.00;;
2860;SDS011;1438;50.922;6.704;2023-11-19T13:58:08;17.27;;;3.50;;
2860;SDS011;1438;50.922;6.704;2023-11-19T14:00:34;8.70;;;2.97;;
2860;SDS011;1438;50.922;6.704;2023-11-19T14:03:00;13.50;;;3.03;;
2860;SDS011;1438;50.922;6.704;2023-11-19T14:05:27;14.20;;;2.73;;
2860;SDS011;1438;50.922;6.704;2023-11-19T14:07:53;13.00;;;3.43;;
2860;SDS011;1438;50.922;6.704;2023-11-19T14:10:21;17.60;;;3.40;;
2860;SDS011;1438;50.922;6.704;2023-11-19T14:12:48;11.37;;;3.03;;
2860;SDS011;1438;50.922;6.704;2023-11-19T14:15:15;10.90;;;3.27;;
2860;SDS011;1438;50.922;6.704;2023-11-19T14:17:44;15.57;;;3.20;;
2860;SDS011;1438;50.922;6.704;2023-11-19T14:20:10;10.00;;;2.80;;
2860;SDS011;1438;50.922;6.704;2023-11-19T14:22:40;6.43;;;1.77;;
2860;SDS011;1438;50.922;6.704;2023-11-19T14:25:07;7.37;;;2.20;;
2860;SDS011;1438;50.922;6.704;2023-11-19T14:27:36;8.73;;;2.00;;
2860;SDS011;1438;50.922;6.704;2023-11-19T14:30:03;7.50;;;2.43;;
2860;SDS011;1438;50.922;6.704;2023-11-19T14:32:29;11.00;;;2.80;;
2860;SDS011;1438;50.922;6.704;2023-11-19T14:34:56;15.32;;;2.67;;
2860;SDS011;1438;50.922;6.704;2023-11-19T14:37:21;12.13;;;3.07;;
2860;SDS011;1438;50.922;6.704;2023-11-19T14:39:47;13.20;;;3.20;;
2860;SDS011;1438;50.922;6.704;2023-11-19T14:42:15;13.77;;;3.07;;
2860;SDS011;1438;50.922;6.704;2023-11-19T14:44:41;14.32;;;3.22;;
2860;SDS011;1438;50.922;6.704;2023-11-19T14:47:07;13.93;;;3.40;;
2860;SDS011;1438;50.922;6.704;2023-11-19T14:49:35;17.30;;;3.70;;
2860;SDS011;1438;50.922;6.704;2023-11-19T14:52:05;8.23;;;2.80;;
2860;SDS011;1438;50.922;6.704;2023-11-19T14:54:31;9.60;;;2.83;;
2860;SDS011;1438;50.922;6.704;2023-11-19T14:56:57;12.63;;;3.17;;
2860;SDS011;1438;50.922;6.704;2023-11-19T14:59:24;17.13;;;4.07;;
2860;SDS011;1438;50.922;6.704;2023-11-19T15:01:50;17.60;;;3.70;;
2860;SDS011;1438;50.922;6.704;2023-11-19T15:04:16;12.87;;;3.30;;
2860;SDS011;1438;50.922;6.704;2023-11-19T15:06:42;9.90;;;3.20;;
2860;SDS011;1438;50.922;6.704;2023-11-19T15:09:08;17.35;;;3.67;;
2860;SDS011;1438;50.922;6.704;2023-11-19T15:11:38;17.27;;;4.22;;
2860;SDS011;1438;50.922;6.704;2023-11-19T15:14:04;14.63;;;5.57;;
2860;SDS011;1438;50.922;6.704;2023-11-19T15:16:31;9.90;;;3.00;;
2860;SDS011;1438;50.922;6.704;2023-11-19T15:18:59;13.18;;;2.92;;
2860;SDS011;1438;50.922;6.704;2023-11-19T15:21:28;8.20;;;3.17;;
2860;SDS011;1438;50.922;6.704;2023-11-19T15:23:54;15.63;;;4.45;;
2860;SDS011;1438;50.922;6.704;2023-11-19T15:26:23;13.83;;;4.17;;
2860;SDS011;1438;50.922;6.704;2023-11-19T15:28:49;26.87;;;4.00;;
2860;SDS011;1438;50.922;6.704;2023-11-19T15:31:15;16.10;;;3.33;;